This is the latest recevied weather packets stored in our database for station/object VE6CWS-7. If no packets are shown the sender has not sent any weather packets the latest 10 day(s).
| Time | Temp. | Humidity | Pressure | Rain* | Wind** | Luminosity | Snow |
|---|---|---|---|---|---|---|---|
| 1778169698 | 16.11° C | 51% | 1009.1 hPa | 0 mm | - | - | - |
| 1778168755 | 15° C | 52% | 1009.2 hPa | 0 mm | - | - | - |
| 1778167849 | 14.44° C | 57% | 1009.3 hPa | 0 mm | - | - | - |
| 1778166946 | 13.89° C | 59% | 1009.2 hPa | 0 mm | - | - | - |
| 1778166102 | 12.78° C | 63% | 1009.2 hPa | 0 mm | - | - | - |
| 1778165151 | 11.67° C | 64% | 1009.2 hPa | 0 mm | - | - | - |
| 1778164255 | 11.11° C | 64% | 1009.3 hPa | 0 mm | - | - | - |
| 1778163353 | 10.56° C | 62% | 1009.2 hPa | 0 mm | - | - | - |
| 1778162506 | 10° C | 63% | 1009.2 hPa | 0 mm | - | - | - |
| 1778161538 | 9.44° C | 65% | 1009.2 hPa | 0 mm | - | - | - |
| 1778160646 | 8.89° C | 67% | 1009.1 hPa | 0 mm | - | - | - |
| 1778159794 | 7.78° C | 70% | 1009.1 hPa | 0 mm | - | - | - |
| 1778158892 | 7.78° C | 71% | 1009.3 hPa | 0 mm | - | - | - |
| 1778157943 | 7.78° C | 74% | 1009 hPa | 0 mm | - | - | - |
| 1778157042 | 6.11° C | 75% | 1009.1 hPa | 0 mm | - | - | - |
| 1778156139 | 6.67° C | 72% | 1009 hPa | 0 mm | - | - | - |
| 1778155296 | 7.22° C | 70% | 1009.2 hPa | 0 mm | - | - | - |
| 1778154387 | 7.22° C | 68% | 1009.1 hPa | 0 mm | - | - | - |
| 1778153445 | 7.78° C | 66% | 1009.1 hPa | 0 mm | - | - | - |
| 1778152544 | 7.78° C | 67% | 1009.1 hPa | 0 mm | - | - | - |
| 1778151703 | 6.67° C | 68% | 1009.1 hPa | 0 mm | - | - | - |
| 1778150750 | 7.22° C | 64% | 1008.9 hPa | 0 mm | - | - | - |
| 1778149850 | 7.78° C | 64% | 1008.8 hPa | 0 mm | - | - | - |
| 1778148948 | 6.67° C | 68% | 1008.8 hPa | 0 mm | - | - | - |
| 1778148105 | 7.22° C | 66% | 1008.8 hPa | 0 mm | - | - | - |
* Rain latest hour (hover to see other rain measurements)
** Current wind speed in m/s (hover to see current wind gust speed)